createdAt,value
2023-12-01T00:00:09.069Z,76.96
2023-12-01T00:01:08.981Z,77.49
2023-12-01T00:02:08.843Z,78.38
2023-12-01T00:03:08.617Z,76.44
2023-12-01T00:04:08.525Z,76.06
2023-12-01T00:05:08.375Z,78.58
2023-12-01T00:55:59.647Z,79.50
2023-12-01T00:57:00.454Z,94.85
2023-12-01T00:58:00.329Z,121.01
2023-12-01T00:59:00.203Z,152.76
2023-12-01T01:00:00.035Z,184.42
2023-12-01T01:00:59.903Z,201.42
2023-12-01T01:01:59.730Z,183.48
2023-12-01T01:02:59.584Z,168.39
2023-12-01T01:03:59.494Z,157.24
2023-12-01T01:04:59.402Z,151.90
2023-12-01T01:05:59.109Z,142.06
2023-12-01T01:06:59.000Z,133.39
2023-12-01T01:07:58.789Z,127.63
2023-12-01T01:08:58.642Z,123.69
2023-12-01T01:09:58.526Z,118.14
2023-12-01T01:10:58.340Z,112.56
2023-12-01T01:11:58.204Z,111.02
2023-12-01T01:12:58.083Z,106.63
2023-12-01T01:13:57.871Z,103.78
2023-12-01T01:14:57.709Z,102.09
2023-12-01T01:15:57.632Z,99.01
2023-12-01T01:16:57.500Z,96.38
2023-12-01T01:17:57.269Z,94.36
2023-12-01T01:18:57.137Z,92.89
2023-12-01T01:19:56.930Z,94.30
2023-12-01T01:20:55.761Z,89.52
2023-12-01T01:21:56.636Z,87.17
2023-12-01T01:22:56.449Z,90.23
2023-12-01T01:23:56.293Z,88.10
2023-12-01T01:24:56.152Z,85.50
2023-12-01T01:25:55.977Z,86.73
2023-12-01T01:26:55.814Z,84.85
2023-12-01T01:27:55.707Z,82.75
2023-12-01T01:28:55.511Z,79.96
2023-12-01T01:29:54.361Z,80.10
2023-12-01T01:30:55.234Z,80.24
2023-12-01T01:31:55.137Z,79.96
2023-12-01T01:32:54.932Z,80.83
2023-12-01T01:33:54.778Z,78.76
2023-12-01T01:34:54.566Z,78.72
2023-12-01T01:35:54.420Z,79.00
2023-12-01T01:36:54.276Z,78.07
2023-12-01T01:37:54.091Z,78.24
2023-12-01T01:38:53.937Z,78.21
2023-12-01T01:39:53.813Z,77.77
2023-12-01T01:40:53.624Z,73.54
2023-12-01T01:41:54.105Z,75.51
2023-12-01T01:42:53.526Z,75.11
2023-12-01T01:43:53.332Z,73.96
2023-12-01T01:44:53.177Z,75.33
2023-12-01T01:45:53.090Z,72.96
2023-12-01T01:46:52.858Z,71.02
2023-12-01T01:47:52.726Z,74.92
2023-12-01T01:48:52.572Z,70.25
2023-12-01T01:49:52.370Z,73.95
2023-12-01T01:50:52.217Z,71.22
2023-12-01T01:51:52.077Z,68.85
2023-12-01T01:52:51.909Z,71.22
2023-12-01T01:53:51.756Z,69.00
2023-12-01T01:54:51.614Z,71.14
2023-12-01T01:55:51.458Z,71.12
2023-12-01T01:56:51.300Z,70.47
2023-12-01T01:57:51.159Z,70.44
2023-12-01T01:58:49.991Z,68.89
2023-12-01T01:59:50.865Z,69.37
2023-12-01T02:00:51.142Z,70.19
2023-12-01T02:01:50.589Z,68.30
2023-12-01T02:02:50.477Z,68.21
2023-12-01T02:03:50.305Z,68.93
2023-12-01T02:04:50.050Z,67.36
2023-12-01T02:05:49.907Z,68.08
2023-12-01T02:06:49.767Z,67.73
2023-12-01T02:07:49.585Z,65.94
2023-12-01T02:08:49.430Z,71.21
2023-12-01T02:09:49.641Z,68.14
2023-12-01T02:10:49.129Z,66.48
2023-12-01T02:11:48.971Z,68.41
2023-12-01T02:12:48.840Z,64.77
2023-12-01T02:13:48.662Z,67.39
2023-12-01T02:14:48.548Z,69.53
2023-12-01T02:15:48.464Z,67.54
2023-12-01T02:16:48.257Z,65.55
2023-12-01T02:17:48.158Z,67.80
2023-12-01T02:18:47.933Z,68.48
2023-12-01T02:19:47.755Z,66.21
2023-12-01T02:20:47.602Z,67.93
2023-12-01T02:21:47.714Z,67.73
2023-12-01T02:22:47.429Z,66.39
2023-12-01T02:23:47.216Z,64.44
2023-12-01T02:24:47.096Z,65.82
2023-12-01T02:25:46.923Z,65.89
2023-12-01T02:26:46.769Z,66.07
2023-12-01T02:27:46.645Z,66.17
2023-12-01T02:28:46.485Z,67.79
2023-12-01T02:29:46.300Z,68.66
2023-12-01T02:30:46.242Z,70.12
2023-12-01T02:31:46.078Z,67.89
2023-12-01T02:32:45.865Z,65.86
2023-12-01T02:33:45.716Z,65.44
2023-12-01T02:34:44.528Z,68.01
2023-12-01T02:35:45.373Z,65.89
2023-12-01T02:36:45.242Z,66.30
2023-12-01T02:37:45.064Z,68.01
2023-12-01T02:38:44.914Z,65.27
2023-12-01T02:39:44.795Z,67.70
2023-12-01T02:40:44.704Z,64.92
2023-12-01T02:41:44.445Z,65.89
2023-12-01T02:42:44.295Z,68.86
2023-12-01T02:43:44.173Z,66.64
2023-12-01T02:44:43.974Z,62.91
2023-12-01T02:45:43.908Z,66.43
2023-12-01T02:46:43.768Z,64.84
2023-12-01T02:47:43.562Z,65.96
2023-12-01T02:48:43.399Z,63.84
2023-12-01T02:49:43.191Z,66.22
2023-12-01T02:50:43.053Z,63.21
2023-12-01T02:51:42.919Z,64.64
2023-12-01T02:52:42.727Z,68.61
2023-12-01T02:53:41.564Z,63.18
2023-12-01T02:54:42.407Z,64.44
2023-12-01T02:55:42.247Z,65.47
2023-12-01T02:56:42.131Z,67.21
2023-12-01T02:57:41.988Z,67.61
2023-12-01T02:58:41.760Z,63.55
2023-12-01T02:59:41.608Z,62.00
2023-12-01T03:00:41.471Z,64.22
2023-12-01T03:01:41.406Z,62.76
2023-12-01T03:02:41.151Z,64.96
2023-12-01T03:03:41.041Z,65.31
2023-12-01T03:04:40.863Z,63.60
2023-12-01T03:05:40.687Z,66.03
2023-12-01T03:06:40.530Z,63.64
2023-12-01T03:07:40.371Z,61.49
2023-12-01T03:08:40.250Z,64.13
2023-12-01T03:09:40.054Z,66.08
2023-12-01T03:10:39.902Z,63.29
2023-12-01T03:11:38.737Z,64.75
2023-12-01T03:12:39.668Z,64.02
2023-12-01T03:13:39.615Z,66.08
2023-12-01T03:14:39.286Z,64.08
2023-12-01T03:15:39.170Z,63.81
2023-12-01T03:16:39.132Z,63.61
2023-12-01T03:17:38.929Z,65.06
2023-12-01T03:18:38.756Z,64.76
2023-12-01T03:19:38.564Z,63.25
2023-12-01T03:20:38.382Z,63.40
2023-12-01T03:21:38.270Z,64.16
2023-12-01T03:22:38.098Z,61.99
2023-12-01T03:23:37.915Z,64.79
2023-12-01T03:24:37.776Z,62.05
2023-12-01T03:25:37.607Z,61.86
2023-12-01T03:26:37.442Z,64.48
2023-12-01T03:27:37.347Z,61.35
2023-12-01T03:28:37.126Z,62.43
2023-12-01T03:29:36.982Z,65.31
2023-12-01T03:30:36.871Z,64.05
2023-12-01T03:31:36.695Z,63.25
2023-12-01T03:32:36.550Z,62.59
2023-12-01T03:33:36.393Z,61.54
2023-12-01T03:34:36.187Z,62.45
2023-12-01T03:35:36.046Z,60.05
2023-12-01T03:36:35.910Z,61.63
2023-12-01T03:37:35.715Z,62.65
2023-12-01T03:38:35.570Z,64.08
2023-12-01T03:39:35.415Z,60.84
2023-12-01T03:40:35.247Z,61.62
2023-12-01T03:41:35.089Z,65.25
2023-12-01T03:42:34.961Z,61.66
2023-12-01T03:43:34.770Z,62.66
2023-12-01T03:44:35.628Z,61.21
2023-12-01T03:45:34.469Z,61.27
2023-12-01T03:46:34.453Z,61.27
2023-12-01T03:47:34.184Z,62.11
2023-12-01T03:48:34.042Z,62.45
2023-12-01T03:49:33.853Z,62.65
2023-12-01T03:50:33.709Z,62.21
2023-12-01T03:51:33.566Z,61.27
2023-12-01T03:52:33.389Z,63.54
2023-12-01T03:53:33.227Z,64.84
2023-12-01T03:54:33.071Z,63.23
2023-12-01T03:55:32.956Z,62.98
2023-12-01T03:56:32.755Z,61.84
2023-12-01T03:57:32.646Z,62.08
2023-12-01T03:58:32.440Z,60.37
2023-12-01T03:59:32.282Z,60.66
2023-12-01T04:00:32.130Z,60.14
2023-12-01T04:01:32.045Z,61.60
2023-12-01T04:02:31.888Z,62.91
2023-12-01T04:03:31.701Z,63.95
2023-12-01T04:04:31.627Z,60.79
2023-12-01T04:05:31.354Z,62.89
2023-12-01T04:06:31.209Z,60.55
2023-12-01T04:07:31.065Z,62.37
2023-12-01T04:08:30.886Z,61.29
2023-12-01T04:09:30.734Z,63.21
2023-12-01T04:10:30.579Z,60.37
2023-12-01T04:11:30.417Z,64.03
2023-12-01T04:12:30.253Z,60.84
2023-12-01T04:13:30.101Z,60.22
2023-12-01T04:14:29.981Z,61.80
2023-12-01T04:15:29.814Z,61.50
2023-12-01T04:16:29.662Z,61.26
2023-12-01T04:17:29.539Z,60.74
2023-12-01T04:18:28.340Z,60.54
2023-12-01T04:19:29.156Z,64.32
2023-12-01T04:20:29.323Z,59.43
2023-12-01T04:21:28.846Z,60.62
2023-12-01T04:22:28.698Z,61.63
2023-12-01T04:23:28.573Z,59.85
2023-12-01T04:24:28.386Z,60.78
2023-12-01T04:25:28.287Z,62.63
2023-12-01T04:26:28.091Z,61.34
2023-12-01T04:27:27.940Z,61.26
2023-12-01T04:28:27.807Z,61.61
2023-12-01T04:29:27.626Z,61.25
2023-12-01T04:30:27.527Z,62.61
2023-12-01T04:31:27.439Z,61.94
2023-12-01T04:32:27.214Z,59.29
2023-12-01T04:33:27.055Z,59.24
2023-12-01T04:34:26.869Z,61.83
2023-12-01T04:35:26.758Z,60.98
2023-12-01T04:36:26.564Z,57.96
2023-12-01T04:37:26.463Z,59.09
2023-12-01T04:38:26.276Z,59.68
2023-12-01T04:39:26.190Z,61.05
2023-12-01T04:40:26.016Z,58.83
2023-12-01T04:41:25.813Z,58.76
2023-12-01T04:42:25.653Z,61.85
2023-12-01T04:43:25.626Z,61.34
2023-12-01T04:44:25.336Z,61.43
2023-12-01T04:45:25.224Z,61.23
2023-12-01T04:46:25.161Z,59.16
2023-12-01T04:47:24.922Z,62.76
2023-12-01T04:48:24.731Z,63.63
2023-12-01T04:49:24.566Z,61.80
2023-12-01T04:50:24.417Z,60.67
2023-12-01T04:51:24.262Z,60.02
2023-12-01T04:52:24.102Z,59.03
2023-12-01T04:53:23.953Z,61.64
2023-12-01T04:54:22.807Z,60.66
2023-12-01T04:55:23.701Z,60.54
2023-12-01T04:56:24.957Z,60.46
2023-12-01T04:57:23.346Z,62.66
2023-12-01T04:58:23.268Z,59.62
2023-12-01T04:59:23.027Z,61.82
2023-12-01T05:00:22.950Z,60.66
2023-12-01T05:01:22.736Z,59.79
2023-12-01T05:02:21.575Z,59.87
2023-12-01T05:03:22.441Z,60.30
2023-12-01T05:04:22.365Z,61.50
2023-12-01T05:05:22.209Z,58.32
2023-12-01T05:06:21.990Z,58.52
2023-12-01T05:07:22.835Z,62.41
2023-12-01T05:08:20.666Z,61.02
2023-12-01T05:09:21.513Z,61.79
2023-12-01T05:10:21.361Z,62.72
2023-12-01T05:11:21.230Z,63.90
2023-12-01T05:12:21.118Z,62.58
2023-12-01T05:13:20.924Z,60.66
2023-12-01T05:14:20.744Z,59.58
2023-12-01T05:15:20.776Z,60.10
2023-12-01T05:16:20.516Z,60.52
2023-12-01T05:17:20.300Z,61.65
2023-12-01T05:18:20.173Z,63.90
2023-12-01T05:19:19.996Z,61.63
2023-12-01T05:20:19.833Z,60.54
2023-12-01T05:21:20.853Z,58.10
2023-12-01T05:22:19.545Z,63.21
2023-12-01T05:23:19.371Z,59.65
2023-12-01T05:24:19.207Z,61.04
2023-12-01T05:25:19.122Z,60.87
2023-12-01T05:26:18.903Z,60.88
2023-12-01T05:27:18.802Z,59.75
2023-12-01T05:28:18.620Z,56.99
2023-12-01T05:29:18.435Z,57.84
2023-12-01T05:30:18.281Z,60.16
2023-12-01T05:31:18.248Z,62.23
2023-12-01T05:32:17.967Z,58.18
2023-12-01T05:33:17.879Z,60.12
2023-12-01T05:34:17.734Z,59.29
2023-12-01T05:35:17.557Z,60.46
2023-12-01T05:36:17.381Z,58.89
2023-12-01T05:37:17.319Z,57.01
2023-12-01T05:38:17.119Z,59.54
2023-12-01T05:39:16.907Z,59.54
2023-12-01T05:40:16.794Z,61.06
2023-12-01T05:41:16.681Z,60.99
2023-12-01T05:42:16.439Z,61.51
2023-12-01T05:43:16.320Z,61.25
2023-12-01T05:44:16.180Z,60.72
2023-12-01T05:45:15.962Z,59.19
2023-12-01T05:46:15.884Z,58.42
2023-12-01T05:47:15.644Z,60.63
2023-12-01T05:48:15.535Z,58.59
2023-12-01T05:49:15.415Z,57.37
2023-12-01T05:50:15.201Z,59.38
2023-12-01T05:51:15.013Z,58.68
2023-12-01T05:52:14.878Z,61.98
2023-12-01T05:53:15.131Z,58.17
2023-12-01T05:54:14.555Z,60.21
2023-12-01T05:55:14.426Z,57.99
2023-12-01T05:56:14.307Z,59.32
2023-12-01T05:57:14.083Z,58.85
2023-12-01T05:58:14.374Z,59.81
2023-12-01T05:59:13.790Z,58.53
2023-12-01T06:00:13.643Z,59.65
2023-12-01T06:01:13.543Z,58.39
2023-12-01T06:02:13.433Z,61.58
2023-12-01T06:03:13.655Z,58.89
2023-12-01T06:04:13.074Z,57.20
2023-12-01T06:05:12.836Z,61.80
2023-12-01T06:06:12.689Z,58.13
2023-12-01T06:07:12.643Z,59.81
2023-12-01T06:08:13.086Z,59.06
2023-12-01T06:09:12.266Z,60.00
2023-12-01T06:10:12.123Z,57.07
2023-12-01T06:11:11.928Z,59.53
2023-12-01T06:12:11.805Z,58.48
2023-12-01T06:13:11.795Z,57.39
2023-12-01T06:14:11.470Z,60.18
2023-12-01T06:15:11.342Z,58.34
2023-12-01T06:16:11.311Z,58.59
2023-12-01T06:17:11.099Z,59.45
2023-12-01T06:18:10.944Z,59.73
2023-12-01T06:20:09.550Z,59.18
2023-12-01T06:21:10.709Z,59.74
2023-12-01T06:22:10.280Z,57.11
2023-12-01T06:23:10.117Z,59.96
2023-12-01T06:24:09.928Z,58.79
2023-12-01T06:25:08.812Z,61.20
2023-12-01T06:26:09.666Z,59.84
2023-12-01T06:27:09.475Z,60.11
2023-12-01T06:28:09.377Z,60.45
2023-12-01T06:29:09.187Z,63.79
2023-12-01T06:30:09.017Z,64.55
2023-12-01T06:31:09.278Z,64.64
2023-12-01T06:32:08.330Z,64.73
2023-12-01T06:33:09.097Z,63.87
2023-12-01T06:34:08.467Z,65.28
2023-12-01T06:35:08.272Z,65.23
2023-12-01T06:36:08.121Z,66.68
2023-12-01T06:37:07.996Z,67.63
2023-12-01T06:38:07.840Z,66.13
2023-12-01T06:39:07.685Z,66.03
2023-12-01T06:40:07.552Z,66.60
2023-12-01T06:41:07.404Z,62.84
2023-12-01T06:42:07.720Z,66.48
2023-12-01T06:43:07.505Z,67.04
2023-12-01T06:44:07.217Z,68.74
2023-12-01T06:45:06.804Z,68.40
2023-12-01T06:46:06.796Z,66.20
2023-12-01T06:47:06.566Z,66.83
2023-12-01T06:48:05.450Z,67.38
2023-12-01T06:49:06.256Z,66.11
2023-12-01T06:50:06.400Z,71.17
2023-12-01T06:51:06.225Z,68.42
2023-12-01T06:52:06.323Z,71.91
2023-12-01T06:53:05.672Z,69.95
2023-12-01T06:54:05.571Z,70.88
2023-12-01T06:55:05.480Z,73.36
2023-12-01T06:56:05.237Z,71.99
2023-12-01T06:57:05.239Z,75.17
2023-12-01T06:58:05.025Z,76.89
2023-12-01T06:59:03.823Z,79.88
2023-12-01T07:00:04.777Z,78.58
2023-12-01T07:01:07.236Z,80.99
2023-12-01T07:02:04.854Z,79.58
2023-12-01T07:03:07.785Z,80.08
2023-12-01T07:04:07.876Z,80.14
2023-12-01T07:05:04.276Z,80.24
2023-12-01T07:06:04.401Z,80.21
2023-12-01T07:07:04.062Z,81.38
2023-12-01T07:08:04.110Z,80.88
2023-12-01T07:09:02.812Z,83.03
2023-12-01T07:10:03.469Z,81.57
2023-12-01T07:11:04.010Z,81.59
2023-12-01T07:12:03.113Z,81.66
2023-12-01T07:13:03.425Z,82.17
2023-12-01T07:14:02.846Z,83.00
2023-12-01T07:15:02.736Z,83.15
2023-12-01T07:16:02.657Z,82.97
2023-12-01T07:17:03.890Z,82.70
2023-12-01T07:18:02.822Z,81.43
2023-12-01T07:19:02.395Z,78.59
2023-12-01T07:20:02.194Z,80.30
2023-12-01T07:21:02.179Z,78.25
2023-12-01T07:22:02.084Z,78.82
2023-12-01T07:23:17.891Z,79.57
2023-12-01T07:24:01.623Z,79.60
2023-12-01T07:25:01.537Z,79.29
2023-12-01T07:26:01.469Z,78.14
2023-12-01T07:27:00.232Z,77.63
2023-12-01T07:28:01.677Z,77.61
2023-12-01T07:29:00.928Z,76.70
2023-12-01T07:30:00.784Z,75.78
2023-12-01T07:31:00.691Z,77.00
2023-12-01T07:32:00.603Z,76.67
2023-12-01T07:33:00.018Z,76.54
2023-12-01T07:34:01.834Z,76.01
2023-12-01T07:35:00.267Z,73.80
2023-12-01T07:36:00.207Z,76.52
2023-12-01T07:37:00.053Z,77.04
2023-12-01T07:37:59.981Z,77.30
2023-12-01T07:38:59.850Z,75.02
2023-12-01T07:39:58.553Z,74.98
2023-12-01T07:40:59.518Z,74.76
2023-12-01T07:42:00.469Z,74.81
2023-12-01T07:42:59.500Z,74.11
2023-12-01T07:43:59.338Z,75.56
2023-12-01T07:44:58.916Z,73.94
2023-12-01T07:45:58.942Z,73.20
2023-12-01T07:46:59.230Z,74.52
2023-12-01T07:47:58.767Z,75.04
2023-12-01T07:49:08.862Z,76.07
2023-12-01T07:49:58.197Z,76.16
2023-12-01T07:50:58.445Z,76.32
2023-12-01T07:51:58.039Z,76.16
2023-12-01T07:52:58.353Z,73.56
2023-12-01T07:53:58.119Z,78.34
2023-12-01T07:54:57.589Z,78.70
2023-12-01T07:55:58.129Z,77.03
2023-12-01T07:56:57.344Z,74.05
2023-12-01T07:57:57.238Z,76.56
2023-12-01T07:58:57.038Z,75.87
2023-12-01T07:59:56.890Z,76.02
2023-12-01T08:00:56.853Z,74.34
2023-12-01T08:01:56.702Z,74.40
2023-12-01T08:02:56.779Z,75.93
2023-12-01T08:03:56.874Z,75.31
2023-12-01T08:04:56.782Z,73.90
2023-12-01T08:05:56.092Z,75.92
2023-12-01T08:06:59.205Z,74.40
2023-12-01T08:07:57.719Z,74.42
2023-12-01T08:08:55.776Z,74.48
2023-12-01T08:09:56.888Z,74.70
2023-12-01T08:10:55.441Z,75.01
2023-12-01T08:11:55.325Z,74.24
2023-12-01T08:12:55.211Z,72.96
2023-12-01T08:13:55.256Z,73.52
2023-12-01T08:14:54.930Z,73.33
2023-12-01T08:15:54.882Z,72.49
2023-12-01T08:16:54.755Z,71.28
2023-12-01T08:17:55.387Z,70.81
2023-12-01T08:18:54.753Z,68.77
2023-12-01T08:19:53.364Z,71.25
2023-12-01T08:20:54.182Z,69.51
2023-12-01T08:21:54.057Z,69.75
2023-12-01T08:22:54.301Z,69.36
2023-12-01T08:23:54.312Z,68.77
2023-12-01T08:24:53.668Z,67.88
2023-12-01T08:25:54.117Z,66.62
2023-12-01T08:26:53.406Z,66.65
2023-12-01T08:27:53.545Z,66.74
2023-12-01T08:28:52.259Z,66.74
2023-12-01T08:29:53.454Z,66.92
2023-12-01T08:30:51.975Z,66.70
2023-12-01T08:31:52.928Z,66.13
2023-12-01T08:32:52.849Z,64.39
2023-12-01T08:33:52.576Z,63.74
2023-12-01T08:34:52.432Z,61.69
2023-12-01T08:35:51.317Z,60.80
2023-12-01T08:36:52.177Z,59.73
2023-12-01T08:37:52.070Z,58.44
2023-12-01T08:38:52.281Z,57.11
2023-12-01T08:39:51.862Z,56.12
2023-12-01T08:40:54.987Z,56.23
2023-12-01T08:41:51.783Z,56.32
2023-12-01T08:42:51.419Z,56.32
2023-12-01T08:43:51.319Z,56.78
2023-12-01T08:44:50.231Z,56.31
2023-12-01T08:45:51.104Z,56.30
2023-12-01T08:46:52.266Z,56.61
2023-12-01T08:47:50.826Z,56.43
2023-12-01T08:48:50.794Z,56.04
2023-12-01T08:49:50.790Z,57.52
2023-12-01T08:50:50.471Z,55.90
2023-12-01T08:51:50.357Z,54.50
2023-12-01T08:52:50.219Z,53.73
2023-12-01T08:53:50.208Z,53.86
2023-12-01T08:54:53.515Z,55.75
2023-12-01T08:55:50.887Z,55.42
2023-12-01T08:56:49.778Z,55.79
2023-12-01T08:57:49.668Z,55.14
2023-12-01T08:58:49.576Z,57.20
2023-12-01T08:59:52.979Z,55.98
2023-12-01T09:00:50.028Z,55.76
2023-12-01T09:01:49.397Z,56.10
2023-12-01T09:02:49.388Z,56.43
2023-12-01T09:03:49.482Z,57.06
2023-12-01T09:04:48.885Z,61.47
2023-12-01T09:05:48.818Z,60.70
2023-12-01T09:06:48.669Z,60.92
2023-12-01T09:07:48.555Z,62.93
2023-12-01T09:08:48.477Z,63.00
2023-12-01T09:09:48.767Z,64.55
2023-12-01T09:10:48.290Z,64.40
2023-12-01T09:11:49.152Z,67.86
2023-12-01T09:12:48.026Z,64.94
2023-12-01T09:13:47.956Z,65.73
2023-12-01T09:14:47.825Z,66.64
2023-12-01T09:15:47.766Z,69.56
2023-12-01T09:16:47.093Z,69.57
2023-12-01T09:17:47.629Z,69.83
2023-12-01T09:18:47.514Z,70.70
2023-12-01T09:19:47.389Z,70.94
2023-12-01T09:20:47.857Z,72.03
2023-12-01T09:21:47.173Z,72.46
2023-12-01T09:22:46.879Z,71.43
2023-12-01T09:23:46.781Z,74.59
2023-12-01T09:24:47.062Z,75.51
2023-12-01T09:25:46.772Z,74.83
2023-12-01T09:26:46.527Z,75.07
2023-12-01T09:27:46.304Z,80.01
2023-12-01T09:28:46.185Z,81.51
2023-12-01T09:29:46.116Z,80.79
2023-12-01T09:30:46.265Z,80.72
2023-12-01T09:31:45.902Z,81.24
2023-12-01T09:32:45.813Z,80.33
2023-12-01T09:33:46.616Z,82.15
2023-12-01T09:34:45.512Z,82.27
2023-12-01T09:35:55.787Z,82.62
2023-12-01T09:36:45.370Z,82.29
2023-12-01T09:37:45.204Z,83.21
2023-12-01T09:38:45.775Z,83.76
2023-12-01T09:39:46.456Z,87.03
2023-12-01T09:40:45.878Z,89.50
2023-12-01T09:41:48.431Z,91.19
2023-12-01T09:42:52.117Z,91.23
2023-12-01T09:43:44.586Z,91.34
2023-12-01T09:44:44.541Z,91.76
2023-12-01T09:45:45.872Z,92.15
2023-12-01T09:46:44.331Z,93.73
2023-12-01T09:47:44.267Z,95.68
2023-12-01T09:48:44.175Z,97.46
2023-12-01T09:49:43.991Z,99.02
2023-12-01T09:50:45.342Z,97.86
2023-12-01T09:51:43.779Z,95.65
2023-12-01T09:52:43.651Z,96.46
2023-12-01T09:53:44.051Z,98.35
2023-12-01T09:55:06.555Z,102.19
2023-12-01T09:55:43.897Z,102.23
2023-12-01T09:56:43.578Z,101.79
2023-12-01T09:57:43.403Z,102.44
2023-12-01T09:58:43.006Z,102.93
2023-12-01T09:59:42.926Z,102.75
2023-12-01T10:00:41.819Z,102.30
2023-12-01T10:01:42.890Z,102.76
2023-12-01T10:02:42.834Z,102.59
2023-12-01T10:03:42.935Z,104.06
2023-12-01T10:04:42.420Z,104.81
2023-12-01T10:05:42.296Z,105.85
2023-12-01T10:06:42.283Z,105.23
2023-12-01T10:07:42.094Z,106.05
2023-12-01T10:08:41.981Z,105.83
2023-12-01T10:09:41.842Z,105.44
2023-12-01T10:10:41.733Z,105.54
2023-12-01T10:11:41.822Z,105.73
2023-12-01T10:12:41.523Z,106.24
2023-12-01T10:13:41.436Z,107.38
2023-12-01T10:14:41.340Z,107.96
2023-12-01T10:15:41.472Z,109.68
2023-12-01T10:16:41.095Z,109.36
2023-12-01T10:17:41.127Z,109.67
2023-12-01T10:18:40.966Z,108.37
2023-12-01T10:19:40.899Z,108.69
2023-12-01T10:20:40.743Z,109.71
2023-12-01T10:21:40.842Z,107.20
2023-12-01T10:22:40.513Z,109.21
2023-12-01T10:23:40.499Z,109.23
2023-12-01T10:24:41.308Z,109.18
2023-12-01T10:25:40.183Z,109.93
2023-12-01T10:26:40.357Z,109.23
2023-12-01T10:27:39.994Z,109.28
2023-12-01T10:28:39.950Z,109.25
2023-12-01T10:29:40.865Z,111.56
2023-12-01T10:30:39.695Z,111.25
2023-12-01T10:31:39.855Z,110.06
2023-12-01T10:32:39.921Z,109.92
2023-12-01T10:33:39.464Z,110.42
2023-12-01T10:34:39.277Z,113.23
2023-12-01T10:35:39.232Z,109.92
2023-12-01T10:36:39.075Z,112.14
2023-12-01T10:37:39.301Z,110.72
2023-12-01T10:38:39.003Z,110.83
2023-12-01T10:39:38.814Z,109.41
2023-12-01T10:40:38.667Z,107.52
2023-12-01T10:41:38.593Z,107.91
2023-12-01T10:42:38.884Z,103.84
2023-12-01T10:43:39.358Z,103.58
2023-12-01T10:44:38.309Z,105.38
2023-12-01T10:45:38.582Z,104.23
2023-12-01T10:46:38.095Z,105.60
2023-12-01T10:47:38.009Z,107.57
2023-12-01T10:48:37.964Z,106.76
2023-12-01T10:49:36.998Z,107.06
2023-12-01T10:50:37.634Z,109.40
2023-12-01T10:51:38.513Z,107.56
2023-12-01T10:52:37.859Z,107.46
2023-12-01T10:53:37.294Z,107.62
2023-12-01T10:54:36.183Z,107.67
2023-12-01T10:55:37.037Z,108.46
2023-12-01T10:56:36.956Z,109.26
2023-12-01T10:57:37.305Z,110.57
2023-12-01T10:58:36.747Z,111.93
2023-12-01T10:59:36.586Z,113.29
2023-12-01T11:00:36.520Z,113.40
2023-12-01T11:01:36.571Z,115.01
2023-12-01T11:02:36.397Z,111.69
2023-12-01T11:03:36.261Z,113.91
2023-12-01T11:04:36.017Z,115.17
2023-12-01T11:05:35.936Z,113.28
2023-12-01T11:06:35.805Z,114.72
2023-12-01T11:07:35.810Z,115.06
2023-12-01T11:08:35.562Z,113.59
2023-12-01T11:09:35.461Z,115.07
2023-12-01T11:10:35.336Z,114.66
2023-12-01T11:11:35.236Z,114.90
2023-12-01T11:12:35.322Z,115.56
2023-12-01T11:13:35.035Z,114.96
2023-12-01T11:14:34.896Z,113.24
2023-12-01T11:15:33.793Z,115.28
2023-12-01T11:16:34.691Z,113.80
2023-12-01T11:17:33.903Z,113.81
2023-12-01T11:18:34.560Z,113.89
2023-12-01T11:19:34.330Z,113.92
2023-12-01T11:20:34.214Z,115.30
2023-12-01T11:21:33.318Z,113.94
2023-12-01T11:22:35.341Z,114.56
2023-12-01T11:23:33.059Z,113.98
2023-12-01T11:24:34.364Z,114.21
2023-12-01T11:25:33.667Z,115.53
2023-12-01T11:26:33.520Z,115.20
2023-12-01T11:27:33.864Z,113.91
2023-12-01T11:28:33.318Z,114.60
2023-12-01T11:29:33.335Z,115.63
2023-12-01T11:30:33.601Z,116.18
2023-12-01T11:31:32.913Z,118.54
2023-12-01T11:32:32.944Z,119.49
2023-12-01T11:33:31.982Z,119.56
2023-12-01T11:34:32.728Z,119.77
2023-12-01T11:35:32.769Z,120.46
2023-12-01T11:36:32.475Z,120.89
2023-12-01T11:37:32.194Z,120.18
2023-12-01T11:38:32.056Z,120.18
2023-12-01T11:39:31.683Z,119.91
2023-12-01T11:40:31.785Z,119.32
2023-12-01T11:41:33.701Z,118.14
2023-12-01T11:42:31.600Z,118.25
2023-12-01T11:43:38.005Z,118.57
2023-12-01T11:44:31.531Z,118.31
2023-12-01T11:45:31.276Z,118.98
2023-12-01T11:46:31.115Z,120.09
2023-12-01T11:47:31.022Z,121.80
2023-12-01T11:48:30.913Z,122.87
2023-12-01T11:49:32.058Z,122.59
2023-12-01T11:50:30.623Z,123.24
2023-12-01T11:51:30.467Z,123.11
2023-12-01T11:52:30.352Z,122.50
2023-12-01T11:53:30.325Z,121.96
2023-12-01T11:54:29.419Z,120.53
2023-12-01T11:55:30.005Z,121.17
2023-12-01T11:56:29.853Z,119.81
2023-12-01T11:57:29.745Z,118.82
2023-12-01T11:58:29.858Z,118.36
2023-12-01T11:59:28.824Z,118.62
2023-12-01T12:00:29.383Z,116.86
2023-12-01T12:01:31.824Z,115.90
2023-12-01T12:02:29.247Z,115.31
2023-12-01T12:03:29.088Z,114.92
2023-12-01T12:04:29.538Z,113.26
2023-12-01T12:05:28.952Z,112.69
2023-12-01T12:06:28.708Z,112.31
2023-12-01T12:07:28.521Z,110.01
2023-12-01T12:08:28.454Z,109.53
2023-12-01T12:09:27.357Z,109.08
2023-12-01T12:10:28.147Z,106.25
2023-12-01T12:11:28.054Z,106.02
2023-12-01T12:12:28.005Z,105.34
2023-12-01T12:13:27.810Z,105.71
2023-12-01T12:14:27.860Z,103.80
2023-12-01T12:15:27.589Z,102.78
2023-12-01T12:16:27.527Z,101.64
2023-12-01T12:17:27.352Z,100.65
2023-12-01T12:18:27.261Z,100.06
2023-12-01T12:19:27.249Z,99.29
2023-12-01T12:20:27.248Z,100.34
2023-12-01T12:21:26.910Z,98.34
2023-12-01T12:22:26.932Z,98.22
2023-12-01T12:23:26.556Z,98.37
2023-12-01T12:24:25.946Z,98.26
2023-12-01T12:25:26.360Z,98.11
2023-12-01T12:26:26.207Z,96.98
2023-12-01T12:27:26.153Z,95.62
2023-12-01T12:28:25.932Z,96.76
2023-12-01T12:29:26.033Z,97.00
2023-12-01T12:30:25.766Z,97.53
2023-12-01T12:31:25.590Z,96.21
2023-12-01T12:32:25.559Z,96.30
2023-12-01T12:33:25.410Z,96.61
2023-12-01T12:34:25.925Z,96.99
2023-12-01T12:35:25.354Z,96.91
2023-12-01T12:36:25.011Z,97.01
2023-12-01T12:37:24.845Z,98.16
2023-12-01T12:38:24.653Z,97.52
2023-12-01T12:39:24.696Z,97.37
2023-12-01T12:40:24.400Z,96.46
2023-12-01T12:41:24.281Z,97.39
2023-12-01T12:42:24.257Z,97.94
2023-12-01T12:43:24.013Z,96.54
2023-12-01T12:44:23.883Z,96.10
2023-12-01T12:45:23.756Z,96.39
2023-12-01T12:46:23.649Z,95.84
2023-12-01T12:47:23.478Z,95.30
2023-12-01T12:48:23.447Z,95.40
2023-12-01T12:49:22.214Z,95.43
2023-12-01T12:50:23.344Z,95.46
2023-12-01T12:51:23.029Z,95.42
2023-12-01T12:52:23.342Z,95.34
2023-12-01T12:53:22.739Z,94.47
2023-12-01T12:54:22.609Z,94.29
2023-12-01T12:55:22.439Z,93.43
2023-12-01T12:56:22.319Z,93.82
2023-12-01T12:57:22.207Z,92.32
2023-12-01T12:58:22.051Z,92.69
2023-12-01T12:59:21.945Z,92.41
2023-12-01T13:00:21.797Z,91.41
2023-12-01T13:01:21.685Z,90.17
2023-12-01T13:02:21.633Z,91.04
2023-12-01T13:03:21.952Z,89.40
2023-12-01T13:04:20.381Z,89.40
2023-12-01T13:05:21.161Z,89.46
2023-12-01T13:06:21.057Z,89.62
2023-12-01T13:07:20.898Z,89.13
2023-12-01T13:08:20.801Z,88.84
2023-12-01T13:09:21.868Z,88.95
2023-12-01T13:10:20.707Z,89.35
2023-12-01T13:11:20.546Z,89.69
2023-12-01T13:12:20.438Z,89.35
2023-12-01T13:13:20.266Z,90.17
2023-12-01T13:14:20.138Z,87.58
2023-12-01T13:15:20.201Z,91.49
2023-12-01T13:16:19.912Z,92.63
2023-12-01T13:17:19.732Z,93.19
2023-12-01T13:18:18.665Z,91.56
2023-12-01T13:19:19.503Z,93.23
2023-12-01T13:20:19.334Z,94.12
2023-12-01T13:21:19.273Z,93.81
2023-12-01T13:22:18.067Z,93.88
2023-12-01T13:23:18.949Z,94.09
2023-12-01T13:24:18.853Z,94.46
2023-12-01T13:25:18.677Z,92.64
2023-12-01T13:26:18.523Z,95.52
2023-12-01T13:27:19.457Z,94.52
2023-12-01T13:28:18.270Z,96.63
2023-12-01T13:29:18.393Z,95.49
2023-12-01T13:30:18.073Z,95.16
2023-12-01T13:31:16.925Z,95.24
2023-12-01T13:32:17.742Z,95.34
2023-12-01T13:33:16.680Z,95.31
2023-12-01T13:34:17.443Z,95.49
2023-12-01T13:35:17.311Z,95.40
2023-12-01T13:36:17.313Z,96.43